createdAt,value
2023-01-20T00:01:16.366Z,99545.06
2023-01-20T00:06:20.891Z,99548.59
2023-01-20T00:11:23.800Z,99555.78
2023-01-20T00:16:27.298Z,99555.28
2023-01-20T00:21:31.449Z,99563.41
2023-01-20T00:26:34.170Z,99563.41
2023-01-20T00:31:37.265Z,99578.50
2023-01-20T00:36:41.396Z,99583.31
2023-01-20T00:41:44.206Z,99582.59
2023-01-20T00:46:47.169Z,99593.91
2023-01-20T00:51:51.281Z,99600.59
2023-01-20T00:56:54.017Z,99605.94
2023-01-20T01:01:56.851Z,99612.75
2023-01-20T01:07:00.995Z,99626.56
2023-01-20T01:12:03.794Z,99632.47
2023-01-20T01:17:06.711Z,99632.00
2023-01-20T01:22:10.802Z,99642.25
2023-01-20T01:27:13.668Z,99644.75
2023-01-20T01:32:16.438Z,99651.25
2023-01-20T01:37:20.556Z,99659.34
2023-01-20T01:42:25.289Z,99655.06
2023-01-20T01:47:28.032Z,99659.97
2023-01-20T01:52:32.674Z,99668.56
2023-01-20T01:57:35.886Z,99674.97
2023-01-20T02:02:38.711Z,99686.97
2023-01-20T02:07:43.896Z,99684.53
2023-01-20T02:12:49.544Z,99681.00
2023-01-20T02:18:03.516Z,99686.78
2023-01-20T02:23:12.573Z,99691.13
2023-01-20T02:28:45.852Z,99697.69
2023-01-20T02:33:53.513Z,99695.75
2023-01-20T02:39:00.864Z,99697.53
2023-01-20T02:44:09.807Z,99706.63
2023-01-20T02:49:16.177Z,99717.44
2023-01-20T02:54:19.836Z,99715.66
2023-01-20T02:59:25.872Z,99722.06
2023-01-20T03:04:35.831Z,99731.25
2023-01-20T03:09:40.217Z,99740.28
2023-01-20T03:14:43.118Z,99743.59
2023-01-20T03:19:47.358Z,99742.88
2023-01-20T03:24:50.306Z,99745.78
2023-01-20T03:29:53.082Z,99748.38
2023-01-20T03:34:57.620Z,99752.84
2023-01-20T03:40:01.708Z,99764.97
2023-01-20T03:45:07.868Z,99769.69
2023-01-20T03:50:19.131Z,99777.22
2023-01-20T03:55:24.640Z,99772.06
2023-01-20T04:00:29.741Z,99786.66
2023-01-20T04:05:34.944Z,99790.91
2023-01-20T04:10:40.227Z,99790.50
2023-01-20T04:15:44.940Z,99793.94
2023-01-20T04:20:51.537Z,99797.69
2023-01-20T04:25:54.490Z,99804.03
2023-01-20T04:30:57.552Z,99805.47
2023-01-20T04:36:01.777Z,99814.63
2023-01-20T04:41:04.658Z,99815.94
2023-01-20T04:46:07.462Z,99820.31
2023-01-20T04:51:11.891Z,99823.63
2023-01-20T04:56:15.795Z,99828.13
2023-01-20T05:01:18.623Z,99833.03
2023-01-20T05:06:22.705Z,99833.25
2023-01-20T05:11:25.531Z,99837.81
2023-01-20T05:16:31.915Z,99844.97
2023-01-20T05:21:36.072Z,99839.28
2023-01-20T05:26:38.902Z,99848.50
2023-01-20T05:31:43.304Z,99854.75
2023-01-20T05:36:47.660Z,99857.25
2023-01-20T05:41:50.660Z,99862.19
2023-01-20T05:46:53.490Z,99866.34
2023-01-20T05:51:57.589Z,99872.88
2023-01-20T05:57:00.530Z,99885.22
2023-01-20T06:02:03.373Z,99891.13
2023-01-20T06:07:07.464Z,99901.66
2023-01-20T06:12:10.275Z,99898.97
2023-01-20T06:17:13.115Z,99910.69
2023-01-20T06:22:19.572Z,99913.38
2023-01-20T06:27:22.308Z,99929.03
2023-01-20T06:32:25.156Z,99932.34
2023-01-20T06:37:29.271Z,99934.59
2023-01-20T06:42:32.277Z,99947.34
2023-01-20T06:47:35.056Z,99952.72
2023-01-20T06:52:39.115Z,99961.94
2023-01-20T06:57:42.027Z,99967.66
2023-01-20T07:02:44.850Z,99966.41
2023-01-20T07:07:49.060Z,99981.72
2023-01-20T07:12:51.772Z,99983.81
2023-01-20T07:17:54.529Z,99997.34
2023-01-20T07:23:00.491Z,100004.19
2023-01-20T07:28:03.230Z,100002.53
2023-01-20T07:33:06.033Z,100003.25
2023-01-20T07:38:10.357Z,100008.13
2023-01-20T07:43:13.256Z,100018.81
2023-01-20T07:48:15.975Z,100025.72
2023-01-20T07:53:20.161Z,100024.47
2023-01-20T07:58:22.968Z,100043.13
2023-01-20T08:03:27.483Z,100048.72
2023-01-20T08:08:31.950Z,100049.25
2023-01-20T08:13:35.239Z,100055.16
2023-01-20T08:18:38.398Z,100062.59
2023-01-20T08:23:42.456Z,100069.72
2023-01-20T08:28:45.241Z,100085.16
2023-01-20T08:33:48.304Z,100087.84
2023-01-20T08:38:52.447Z,100086.13
2023-01-20T08:43:55.782Z,100085.69
2023-01-20T08:48:58.877Z,100100.34
2023-01-20T08:54:03.340Z,100104.38
2023-01-20T08:59:06.282Z,100107.78
2023-01-20T09:04:09.054Z,100116.81
2023-01-20T09:09:13.724Z,100128.94
2023-01-20T09:14:16.645Z,100124.28
2023-01-20T09:19:19.792Z,100137.13
2023-01-20T09:24:24.274Z,100141.50
2023-01-20T09:29:27.064Z,100149.88
2023-01-20T09:34:30.251Z,100165.84
2023-01-20T09:39:52.013Z,100170.78
2023-01-20T09:44:57.629Z,100182.00
2023-01-20T09:50:41.399Z,100181.88
2023-01-20T09:55:50.275Z,100186.97
2023-01-20T10:00:55.299Z,100189.53
2023-01-20T10:06:00.409Z,100183.47
2023-01-20T10:11:08.225Z,100176.53
2023-01-20T10:16:13.138Z,100181.47
2023-01-20T10:21:20.629Z,100183.22
2023-01-20T10:26:29.627Z,100180.50
2023-01-20T10:31:36.092Z,100175.09
2023-01-20T10:36:41.359Z,100176.00
2023-01-20T10:41:48.369Z,100170.31
2023-01-20T10:46:58.919Z,100178.31
2023-01-20T10:52:12.628Z,100181.25
2023-01-20T10:57:17.113Z,100187.19
2023-01-20T11:02:22.240Z,100192.00
2023-01-20T11:07:25.048Z,100198.97
2023-01-20T11:12:31.538Z,100203.06
2023-01-20T11:17:34.274Z,100205.59
2023-01-20T11:22:38.715Z,100214.09
2023-01-20T11:27:45.821Z,100210.03
2023-01-20T11:33:08.611Z,100208.38
2023-01-20T11:38:25.626Z,100217.81
2023-01-20T11:43:31.297Z,100217.19
2023-01-20T11:48:34.226Z,100223.44
2023-01-20T11:53:37.016Z,100226.03
2023-01-20T11:58:52.530Z,100236.44
2023-01-20T12:04:21.365Z,100240.13
2023-01-20T12:09:27.965Z,100241.50
2023-01-20T12:14:33.520Z,100233.91
2023-01-20T12:19:42.054Z,100251.13
2023-01-20T12:25:10.827Z,100259.53
2023-01-20T12:30:34.809Z,100267.97
2023-01-20T12:35:42.992Z,100258.06
2023-01-20T12:40:49.082Z,100265.25
2023-01-20T12:46:05.128Z,100275.59
2023-01-20T12:51:15.505Z,100269.84
2023-01-20T12:56:23.789Z,100277.63
2023-01-20T13:01:42.638Z,100283.94
2023-01-20T13:06:55.464Z,100293.94
2023-01-20T13:12:06.573Z,100296.94
2023-01-20T13:17:17.362Z,100300.06
2023-01-20T13:22:21.809Z,100308.78
2023-01-20T13:27:27.689Z,100308.69
2023-01-20T13:32:36.560Z,100308.50
2023-01-20T13:37:40.027Z,100322.16
2023-01-20T13:42:53.320Z,100327.38
2023-01-20T13:48:00.453Z,100335.59
2023-01-20T13:53:22.471Z,100342.22
2023-01-20T13:58:43.847Z,100345.97
2023-01-20T14:04:02.673Z,100345.97
2023-01-20T14:09:12.865Z,100350.03
2023-01-20T14:14:20.252Z,100354.69
2023-01-20T14:19:29.803Z,100359.47
2023-01-20T14:24:34.473Z,100353.34
2023-01-20T14:29:37.211Z,100361.22
2023-01-20T14:34:41.462Z,100367.56
2023-01-20T14:39:49.268Z,100380.22
2023-01-20T14:44:53.499Z,100380.84
2023-01-20T14:49:57.627Z,100383.41
2023-01-20T14:55:00.339Z,100388.72
2023-01-20T15:00:21.610Z,100391.00
2023-01-20T15:05:28.858Z,100401.47
2023-01-20T15:10:31.744Z,100411.44
2023-01-20T15:15:34.769Z,100417.25
2023-01-20T15:20:40.456Z,100421.28
2023-01-20T15:25:43.450Z,100428.69
2023-01-20T15:30:46.234Z,100432.09
2023-01-20T15:35:54.691Z,100433.63
2023-01-20T15:40:57.557Z,100443.09
2023-01-20T15:46:00.397Z,100452.09
2023-01-20T15:51:07.045Z,100448.84
2023-01-20T15:56:15.527Z,100463.88
2023-01-20T16:01:20.410Z,100483.22
2023-01-20T16:06:28.999Z,100489.13
2023-01-20T16:11:32.035Z,100496.41
2023-01-20T16:16:35.118Z,100506.53
2023-01-20T16:21:39.462Z,100510.75
2023-01-20T16:26:44.258Z,100513.44
2023-01-20T16:31:47.255Z,100520.00
2023-01-20T16:36:51.793Z,100525.19
2023-01-20T16:41:54.674Z,100526.72
2023-01-20T16:46:58.567Z,100539.91
2023-01-20T16:52:03.270Z,100545.53
2023-01-20T16:57:06.355Z,100549.47
2023-01-20T17:02:10.907Z,100560.63
2023-01-20T17:07:15.161Z,100567.53
2023-01-20T17:12:18.160Z,100565.25
2023-01-20T17:17:22.438Z,100569.63
2023-01-20T17:22:26.625Z,100579.63
2023-01-20T17:27:29.344Z,100579.44
2023-01-20T17:32:32.067Z,100584.63
2023-01-20T17:37:36.084Z,100590.69
2023-01-20T17:42:39.315Z,100591.75
2023-01-20T17:47:42.106Z,100601.50
2023-01-20T17:52:46.237Z,100607.38
2023-01-20T17:57:51.111Z,100618.94
2023-01-20T18:02:56.573Z,100625.72
2023-01-20T18:08:00.709Z,100628.91
2023-01-20T18:13:03.662Z,100634.47
2023-01-20T18:18:06.461Z,100642.72
2023-01-20T18:23:10.586Z,100640.78
2023-01-20T18:28:13.545Z,100642.56
2023-01-20T18:33:16.280Z,100658.63
2023-01-20T18:38:20.515Z,100659.50
2023-01-20T18:43:23.220Z,100663.28
2023-01-20T18:48:26.502Z,100659.19
2023-01-20T18:53:31.651Z,100671.19
2023-01-20T18:58:34.772Z,100673.88
2023-01-20T19:03:38.454Z,100679.34
2023-01-20T19:08:43.642Z,100673.75
2023-01-20T19:13:48.623Z,100674.31
2023-01-20T19:18:52.812Z,100685.59
2023-01-20T19:23:59.757Z,100684.91
2023-01-20T19:29:06.257Z,100691.38
2023-01-20T19:34:09.899Z,100702.34
2023-01-20T19:39:14.146Z,100694.75
2023-01-20T19:44:16.910Z,100709.00
2023-01-20T19:49:19.814Z,100708.59
2023-01-20T19:54:24.442Z,100719.09
2023-01-20T19:59:27.289Z,100724.28
2023-01-20T20:04:30.158Z,100724.09
2023-01-20T20:09:35.201Z,100737.53
2023-01-20T20:14:38.199Z,100741.47
2023-01-20T20:19:41.278Z,100739.19
2023-01-20T20:24:46.878Z,100749.66
2023-01-20T20:29:49.597Z,100750.84
2023-01-20T20:34:52.322Z,100745.50
2023-01-20T20:39:56.458Z,100744.00
2023-01-20T20:44:59.288Z,100747.00
2023-01-20T20:50:02.155Z,100749.94
2023-01-20T20:55:07.394Z,100759.59
2023-01-20T21:00:11.450Z,100762.03
2023-01-20T21:05:14.508Z,100765.97
2023-01-20T21:10:21.051Z,100781.50
2023-01-20T21:15:23.977Z,100783.38
2023-01-20T21:20:26.766Z,100788.00
2023-01-20T21:25:32.801Z,100793.44
2023-01-20T21:30:35.861Z,100794.75
2023-01-20T21:35:39.186Z,100804.91
2023-01-20T21:40:59.584Z,100812.00
2023-01-20T21:46:02.388Z,100822.50
2023-01-20T21:51:23.053Z,100824.25
2023-01-20T21:56:27.241Z,100830.03
2023-01-20T22:01:30.043Z,100827.75
2023-01-20T22:06:32.777Z,100836.81
2023-01-20T22:11:37.005Z,100835.22
2023-01-20T22:16:39.825Z,100835.06
2023-01-20T22:21:42.743Z,100844.59
2023-01-20T22:26:48.554Z,100841.47
2023-01-20T22:31:52.796Z,100846.91
2023-01-20T22:36:56.584Z,100855.22
2023-01-20T22:42:00.665Z,100865.41
2023-01-20T22:47:05.739Z,100873.75
2023-01-20T22:52:08.436Z,100871.03
2023-01-20T22:57:13.126Z,100885.13
2023-01-20T23:02:16.093Z,100886.00
2023-01-20T23:07:18.973Z,100890.56
2023-01-20T23:12:23.307Z,100895.22
2023-01-20T23:17:26.481Z,100899.34
2023-01-20T23:22:29.934Z,100911.94
2023-01-20T23:27:34.015Z,100913.88
2023-01-20T23:32:36.818Z,100915.88
2023-01-20T23:37:39.507Z,100920.13
2023-01-20T23:42:43.829Z,100915.13
2023-01-20T23:47:46.596Z,100922.28
2023-01-20T23:52:49.349Z,100911.03
2023-01-20T23:57:53.767Z,100920.34
